CheckWX is a tool to help pilots better visualize weather data.  It is not intended as a substitute for an official pre-flight weather briefing.

20:06:11 UTC

KMQY TAF
Smyrna Airport
Smyrna, Tennessee, USA
KMQY 052321Z 0600/0624 02005KT P6SM VCSH SCT045 BKN100 TEMPO 0600/0603 BKN045 FM060300 00000KT P6SM FEW045 SCT250 FM060900 00000KT P6SM SCT045 BKN250 TEMPO 0609/0612 5SM BR FM062200 VRB04KT P6SM FEW060 SCT100

Jul-6@
00:00 UTC

Jul-6 @ 00:00 UTC

Jul-6@
03:00 UTC

Jul-6 @ 03:00 UTC

TAF KMQY 052321Z 0600/0624 02005KT P6SM VCSH SCT045 BKN100

Expired

Wind
  • 020° at 5 KTS
Conditions
Area Showers
Cloud Levels
  • Scattered at 4,500' AGL
  • Broken at 10,000' AGL

Jul-6@
00:00 UTC

Jul-6 @ 00:00 UTC

Jul-6@
03:00 UTC

Jul-6 @ 03:00 UTC

TEMPO 0600/0603 BKN045

Expired

Cloud Levels
  • Broken at 4,500' AGL

Jul-6@
03:00 UTC

Jul-6 @ 03:00 UTC

Jul-6@
09:00 UTC

Jul-6 @ 09:00 UTC

FM060300 00000KT P6SM FEW045 SCT250

Expired

Cloud Levels
  • Few at 4,500' AGL
  • Scattered at 25,000' AGL

Jul-6@
09:00 UTC

Jul-6 @ 09:00 UTC

Jul-6@
12:00 UTC

Jul-6 @ 12:00 UTC

TEMPO 0609/0612 5SM BR

Expired

Conditions
Mist
Cloud Levels

Jul-6@
09:00 UTC

Jul-6 @ 09:00 UTC

Jul-6@
22:00 UTC

Jul-6 @ 22:00 UTC

FM060900 00000KT P6SM SCT045 BKN250

From

From Standard forecast or significant change

Cloud Levels
  • Scattered at 4,500' AGL
  • Broken at 25,000' AGL

Jul-6@
22:00 UTC

Jul-6 @ 22:00 UTC

Jul-7@
00:00 UTC

Jul-7 @ 00:00 UTC

FM062200 VRB04KT P6SM FEW060 SCT100

From

From Standard forecast or significant change

Wind
  • Variable at 4 KTS
Cloud Levels
  • Few at 6,000' AGL
  • Scattered at 10,000' AGL